sensor_id;sensor_type;location;lat;lon;timestamp;pressure;altitude;pressure_sealevel;temperature;humidity
27712;BME280;2377;51.734;8.950;2023-05-03T00:02:08;98981.13;;;5.43;70.45
27712;BME280;2377;51.734;8.950;2023-05-03T00:04:35;98975.84;;;5.37;70.30
27712;BME280;2377;51.734;8.950;2023-05-03T00:07:03;98977.22;;;5.31;70.74
27712;BME280;2377;51.734;8.950;2023-05-03T00:09:32;98979.94;;;5.29;70.50
27712;BME280;2377;51.734;8.950;2023-05-03T00:12:00;98982.13;;;5.24;70.70
27712;BME280;2377;51.734;8.950;2023-05-03T00:14:27;98980.81;;;5.20;70.27
27712;BME280;2377;51.734;8.950;2023-05-03T00:16:54;98981.25;;;5.16;70.54
27712;BME280;2377;51.734;8.950;2023-05-03T00:19:21;98983.16;;;5.14;70.53
27712;BME280;2377;51.734;8.950;2023-05-03T00:21:51;98974.91;;;5.12;70.94
27712;BME280;2377;51.734;8.950;2023-05-03T00:24:18;98971.88;;;5.08;70.49
27712;BME280;2377;51.734;8.950;2023-05-03T00:26:47;98972.81;;;5.07;71.01
27712;BME280;2377;51.734;8.950;2023-05-03T00:29:13;98966.94;;;5.06;70.86
27712;BME280;2377;51.734;8.950;2023-05-03T00:31:42;98966.81;;;5.08;71.21
27712;BME280;2377;51.734;8.950;2023-05-03T00:34:09;98962.97;;;5.04;71.25
27712;BME280;2377;51.734;8.950;2023-05-03T00:36:36;98968.63;;;4.98;71.83
27712;BME280;2377;51.734;8.950;2023-05-03T00:39:03;98967.31;;;4.94;71.54
27712;BME280;2377;51.734;8.950;2023-05-03T00:41:30;98966.03;;;4.90;72.05
27712;BME280;2377;51.734;8.950;2023-05-03T00:43:58;98960.00;;;4.91;72.40
27712;BME280;2377;51.734;8.950;2023-05-03T00:46:25;98963.63;;;4.88;72.48
27712;BME280;2377;51.734;8.950;2023-05-03T00:48:52;98963.16;;;4.84;72.01
27712;BME280;2377;51.734;8.950;2023-05-03T00:51:20;98952.50;;;4.81;72.88
27712;BME280;2377;51.734;8.950;2023-05-03T00:53:48;98953.47;;;4.80;72.82
27712;BME280;2377;51.734;8.950;2023-05-03T00:56:18;98958.66;;;4.78;72.80
27712;BME280;2377;51.734;8.950;2023-05-03T00:58:47;98955.47;;;4.76;72.45
27712;BME280;2377;51.734;8.950;2023-05-03T01:01:16;98963.22;;;4.75;72.57
27712;BME280;2377;51.734;8.950;2023-05-03T01:03:43;98970.00;;;4.74;72.46
27712;BME280;2377;51.734;8.950;2023-05-03T01:06:21;98953.38;;;4.72;72.81
27712;BME280;2377;51.734;8.950;2023-05-03T01:09:01;98954.34;;;4.71;72.35
27712;BME280;2377;51.734;8.950;2023-05-03T01:11:39;98958.75;;;4.69;72.92
27712;BME280;2377;51.734;8.950;2023-05-03T01:14:19;98957.44;;;4.64;73.06
27712;BME280;2377;51.734;8.950;2023-05-03T01:16:54;98959.44;;;4.61;72.78
27712;BME280;2377;51.734;8.950;2023-05-03T01:19:29;98953.09;;;4.57;73.20
27712;BME280;2377;51.734;8.950;2023-05-03T01:22:09;98956.19;;;4.51;73.19
27712;BME280;2377;51.734;8.950;2023-05-03T01:24:40;98962.50;;;4.47;73.45
27712;BME280;2377;51.734;8.950;2023-05-03T01:27:12;98966.91;;;4.44;74.09
27712;BME280;2377;51.734;8.950;2023-05-03T01:29:39;98966.91;;;4.44;73.99
27712;BME280;2377;51.734;8.950;2023-05-03T01:32:15;98963.72;;;4.42;74.12
27712;BME280;2377;51.734;8.950;2023-05-03T01:34:55;98970.00;;;4.38;74.37
27712;BME280;2377;51.734;8.950;2023-05-03T01:37:24;98970.56;;;4.32;74.06
27712;BME280;2377;51.734;8.950;2023-05-03T01:39:59;98966.75;;;4.28;75.08
27712;BME280;2377;51.734;8.950;2023-05-03T01:42:29;98964.50;;;4.25;75.31
27712;BME280;2377;51.734;8.950;2023-05-03T01:44:57;98965.75;;;4.21;75.48
27712;BME280;2377;51.734;8.950;2023-05-03T01:47:25;98961.72;;;4.18;75.44
27712;BME280;2377;51.734;8.950;2023-05-03T01:49:52;98956.03;;;4.16;75.17
27712;BME280;2377;51.734;8.950;2023-05-03T01:52:19;98968.47;;;4.10;75.59
27712;BME280;2377;51.734;8.950;2023-05-03T01:54:46;98959.84;;;4.02;75.74
27712;BME280;2377;51.734;8.950;2023-05-03T01:57:13;98966.63;;;4.02;75.69
27712;BME280;2377;51.734;8.950;2023-05-03T01:59:41;98961.97;;;3.97;75.98
27712;BME280;2377;51.734;8.950;2023-05-03T02:02:08;98966.53;;;3.94;76.49
27712;BME280;2377;51.734;8.950;2023-05-03T02:04:35;98964.31;;;3.91;76.04
27712;BME280;2377;51.734;8.950;2023-05-03T02:07:02;98968.41;;;3.92;75.96
27712;BME280;2377;51.734;8.950;2023-05-03T02:09:29;98971.72;;;3.92;75.94
27712;BME280;2377;51.734;8.950;2023-05-03T02:11:56;98968.41;;;3.92;75.58
27712;BME280;2377;51.734;8.950;2023-05-03T02:14:23;98978.53;;;3.92;75.33
27712;BME280;2377;51.734;8.950;2023-05-03T02:16:51;98982.13;;;3.89;75.52
27712;BME280;2377;51.734;8.950;2023-05-03T02:19:19;98984.13;;;3.86;76.33
27712;BME280;2377;51.734;8.950;2023-05-03T02:21:46;98980.44;;;3.80;76.44
27712;BME280;2377;51.734;8.950;2023-05-03T02:24:13;98980.56;;;3.78;76.70
27712;BME280;2377;51.734;8.950;2023-05-03T02:26:40;98981.66;;;3.76;76.76
27712;BME280;2377;51.734;8.950;2023-05-03T02:29:06;98987.00;;;3.73;76.36
27712;BME280;2377;51.734;8.950;2023-05-03T02:31:34;98992.34;;;3.70;77.19
27712;BME280;2377;51.734;8.950;2023-05-03T02:34:02;98996.59;;;3.69;76.34
27712;BME280;2377;51.734;8.950;2023-05-03T02:36:29;98993.13;;;3.70;76.96
27712;BME280;2377;51.734;8.950;2023-05-03T02:38:56;98996.59;;;3.69;76.67
27712;BME280;2377;51.734;8.950;2023-05-03T02:41:23;98991.53;;;3.69;77.00
27712;BME280;2377;51.734;8.950;2023-05-03T02:43:50;98994.19;;;3.68;76.48
27712;BME280;2377;51.734;8.950;2023-05-03T02:46:17;99001.00;;;3.67;76.78
27712;BME280;2377;51.734;8.950;2023-05-03T02:48:44;98991.66;;;3.68;76.39
27712;BME280;2377;51.734;8.950;2023-05-03T02:51:12;98989.44;;;3.65;76.14
27712;BME280;2377;51.734;8.950;2023-05-03T02:53:39;98989.69;;;3.62;77.16
27712;BME280;2377;51.734;8.950;2023-05-03T02:56:06;98990.25;;;3.55;77.00
27712;BME280;2377;51.734;8.950;2023-05-03T02:58:34;98987.84;;;3.54;76.45
27712;BME280;2377;51.734;8.950;2023-05-03T03:01:01;98986.53;;;3.50;77.12
27712;BME280;2377;51.734;8.950;2023-05-03T03:03:28;98987.47;;;3.49;77.09
27712;BME280;2377;51.734;8.950;2023-05-03T03:05:55;98990.00;;;3.49;76.80
27712;BME280;2377;51.734;8.950;2023-05-03T03:08:23;98988.38;;;3.48;76.70
27712;BME280;2377;51.734;8.950;2023-05-03T03:10:50;98986.16;;;3.45;77.25
27712;BME280;2377;51.734;8.950;2023-05-03T03:13:17;98988.00;;;3.43;77.28
27712;BME280;2377;51.734;8.950;2023-05-03T03:15:44;98993.34;;;3.39;77.88
27712;BME280;2377;51.734;8.950;2023-05-03T03:18:11;98997.59;;;3.39;77.57
27712;BME280;2377;51.734;8.950;2023-05-03T03:20:38;98996.78;;;3.38;76.85
27712;BME280;2377;51.734;8.950;2023-05-03T03:23:05;98995.34;;;3.36;77.14
27712;BME280;2377;51.734;8.950;2023-05-03T03:25:33;99004.78;;;3.34;77.89
27712;BME280;2377;51.734;8.950;2023-05-03T03:28:00;99002.25;;;3.34;77.67
27712;BME280;2377;51.734;8.950;2023-05-03T03:30:27;99001.75;;;3.30;77.81
27712;BME280;2377;51.734;8.950;2023-05-03T03:32:54;98998.81;;;3.25;77.12
27712;BME280;2377;51.734;8.950;2023-05-03T03:35:22;99001.75;;;3.21;77.40
27712;BME280;2377;51.734;8.950;2023-05-03T03:37:52;98996.97;;;3.17;77.14
27712;BME280;2377;51.734;8.950;2023-05-03T03:40:19;98987.13;;;3.14;77.36
27712;BME280;2377;51.734;8.950;2023-05-03T03:42:47;98996.72;;;3.11;78.06
27712;BME280;2377;51.734;8.950;2023-05-03T03:45:14;99001.50;;;3.04;77.89
27712;BME280;2377;51.734;8.950;2023-05-03T03:47:41;98993.25;;;3.02;77.96
27712;BME280;2377;51.734;8.950;2023-05-03T03:50:09;98995.91;;;3.01;78.83
27712;BME280;2377;51.734;8.950;2023-05-03T03:52:36;98996.72;;;3.01;77.93
27712;BME280;2377;51.734;8.950;2023-05-03T03:55:04;98992.31;;;3.03;78.31
27712;BME280;2377;51.734;8.950;2023-05-03T03:57:32;98992.97;;;3.05;78.54
27712;BME280;2377;51.734;8.950;2023-05-03T04:00:00;98989.53;;;3.06;78.07
27712;BME280;2377;51.734;8.950;2023-05-03T04:02:36;98990.34;;;3.07;78.85
27712;BME280;2377;51.734;8.950;2023-05-03T04:05:03;98983.94;;;3.03;79.11
27712;BME280;2377;51.734;8.950;2023-05-03T04:07:31;98986.88;;;2.98;78.84
27712;BME280;2377;51.734;8.950;2023-05-03T04:09:58;98987.81;;;2.97;78.87
27712;BME280;2377;51.734;8.950;2023-05-03T04:12:24;98980.25;;;2.97;79.34
27712;BME280;2377;51.734;8.950;2023-05-03T04:14:51;98983.69;;;2.96;78.87
27712;BME280;2377;51.734;8.950;2023-05-03T04:17:20;98982.09;;;2.95;79.35
27712;BME280;2377;51.734;8.950;2023-05-03T04:19:47;98992.88;;;2.97;79.37
27712;BME280;2377;51.734;8.950;2023-05-03T04:22:14;98986.88;;;2.98;79.02
27712;BME280;2377;51.734;8.950;2023-05-03T04:24:41;98990.84;;;3.01;79.54
27712;BME280;2377;51.734;8.950;2023-05-03T04:27:08;98991.25;;;2.96;80.04
27712;BME280;2377;51.734;8.950;2023-05-03T04:29:36;98990.88;;;2.91;80.19
27712;BME280;2377;51.734;8.950;2023-05-03T04:32:03;98992.47;;;2.92;79.58
27712;BME280;2377;51.734;8.950;2023-05-03T04:34:32;98992.19;;;2.95;80.28
27712;BME280;2377;51.734;8.950;2023-05-03T04:36:59;99001.13;;;2.99;80.46
27712;BME280;2377;51.734;8.950;2023-05-03T04:39:26;99007.22;;;3.06;80.39
27712;BME280;2377;51.734;8.950;2023-05-03T04:41:53;99007.72;;;3.10;80.49
27712;BME280;2377;51.734;8.950;2023-05-03T04:44:20;99001.50;;;3.14;80.91
27712;BME280;2377;51.734;8.950;2023-05-03T04:46:46;99010.13;;;3.21;80.11
27712;BME280;2377;51.734;8.950;2023-05-03T04:49:14;99002.00;;;3.27;80.71
27712;BME280;2377;51.734;8.950;2023-05-03T04:51:43;99009.31;;;3.30;80.84
27712;BME280;2377;51.734;8.950;2023-05-03T04:54:10;99014.63;;;3.37;80.80
27712;BME280;2377;51.734;8.950;2023-05-03T04:56:37;99008.38;;;3.41;80.63
27712;BME280;2377;51.734;8.950;2023-05-03T04:59:04;99000.50;;;3.44;80.42
27712;BME280;2377;51.734;8.950;2023-05-03T05:01:31;99002.47;;;3.50;80.43
27712;BME280;2377;51.734;8.950;2023-05-03T05:03:57;99000.38;;;3.55;80.75
27712;BME280;2377;51.734;8.950;2023-05-03T05:06:24;98999.13;;;3.59;80.79
27712;BME280;2377;51.734;8.950;2023-05-03T05:08:53;98996.06;;;3.66;81.08
27712;BME280;2377;51.734;8.950;2023-05-03T05:11:20;99003.22;;;3.70;80.92
27712;BME280;2377;51.734;8.950;2023-05-03T05:13:47;99002.69;;;3.76;81.07
27712;BME280;2377;51.734;8.950;2023-05-03T05:16:14;99003.72;;;3.84;81.45
27712;BME280;2377;51.734;8.950;2023-05-03T05:18:42;99007.41;;;3.89;81.39
27712;BME280;2377;51.734;8.950;2023-05-03T05:21:09;99000.22;;;3.94;81.16
27712;BME280;2377;51.734;8.950;2023-05-03T05:23:36;99002.84;;;4.02;82.23
27712;BME280;2377;51.734;8.950;2023-05-03T05:26:04;98998.53;;;4.13;82.89
27712;BME280;2377;51.734;8.950;2023-05-03T05:28:31;99000.56;;;4.27;83.96
27712;BME280;2377;51.734;8.950;2023-05-03T05:30:58;99005.81;;;4.43;83.83
27712;BME280;2377;51.734;8.950;2023-05-03T05:33:25;99006.94;;;4.59;83.25
27712;BME280;2377;51.734;8.950;2023-05-03T05:35:52;99010.69;;;4.73;83.88
27712;BME280;2377;51.734;8.950;2023-05-03T05:38:19;99016.34;;;4.84;83.41
27712;BME280;2377;51.734;8.950;2023-05-03T05:40:46;99020.25;;;4.97;82.99
27712;BME280;2377;51.734;8.950;2023-05-03T05:43:14;99015.88;;;5.07;82.89
27712;BME280;2377;51.734;8.950;2023-05-03T05:45:41;99029.25;;;5.17;83.64
27712;BME280;2377;51.734;8.950;2023-05-03T05:48:08;99021.72;;;5.25;82.88
27712;BME280;2377;51.734;8.950;2023-05-03T05:50:35;99025.13;;;5.34;82.54
27712;BME280;2377;51.734;8.950;2023-05-03T05:53:02;99026.13;;;5.41;82.08
27712;BME280;2377;51.734;8.950;2023-05-03T05:55:29;99032.00;;;5.50;82.50
27712;BME280;2377;51.734;8.950;2023-05-03T05:57:56;99038.72;;;5.59;82.05
27712;BME280;2377;51.734;8.950;2023-05-03T06:00:24;99036.25;;;5.67;81.92
27712;BME280;2377;51.734;8.950;2023-05-03T06:02:51;99033.47;;;5.79;82.11
27712;BME280;2377;51.734;8.950;2023-05-03T06:05:19;99031.91;;;5.86;81.70
27712;BME280;2377;51.734;8.950;2023-05-03T06:07:46;99034.19;;;5.97;81.52
27712;BME280;2377;51.734;8.950;2023-05-03T06:10:13;99045.97;;;6.06;80.26
27712;BME280;2377;51.734;8.950;2023-05-03T06:12:40;99055.03;;;6.09;80.16
27712;BME280;2377;51.734;8.950;2023-05-03T06:15:08;99043.31;;;6.16;79.24
27712;BME280;2377;51.734;8.950;2023-05-03T06:17:36;99046.22;;;6.21;78.78
27712;BME280;2377;51.734;8.950;2023-05-03T06:20:05;99050.03;;;6.25;78.16
27712;BME280;2377;51.734;8.950;2023-05-03T06:22:36;99053.38;;;6.34;79.18
27712;BME280;2377;51.734;8.950;2023-05-03T06:25:04;99059.13;;;6.44;78.79
27712;BME280;2377;51.734;8.950;2023-05-03T06:27:32;99056.94;;;6.49;78.06
27712;BME280;2377;51.734;8.950;2023-05-03T06:29:59;99060.47;;;6.56;77.65
27712;BME280;2377;51.734;8.950;2023-05-03T06:32:26;99069.03;;;6.64;76.59
27712;BME280;2377;51.734;8.950;2023-05-03T06:34:55;99067.75;;;6.68;76.11
27712;BME280;2377;51.734;8.950;2023-05-03T06:37:25;99063.03;;;6.73;75.27
27712;BME280;2377;51.734;8.950;2023-05-03T06:39:52;99070.19;;;6.77;75.50
27712;BME280;2377;51.734;8.950;2023-05-03T06:42:19;99066.06;;;6.85;76.01
27712;BME280;2377;51.734;8.950;2023-05-03T06:44:46;99076.09;;;6.94;75.93
27712;BME280;2377;51.734;8.950;2023-05-03T06:47:13;99081.66;;;7.06;75.73
27712;BME280;2377;51.734;8.950;2023-05-03T06:49:40;99082.16;;;7.18;74.58
27712;BME280;2377;51.734;8.950;2023-05-03T06:52:09;99073.72;;;7.34;75.00
27712;BME280;2377;51.734;8.950;2023-05-03T06:54:36;99079.41;;;7.52;74.58
27712;BME280;2377;51.734;8.950;2023-05-03T06:57:02;99080.03;;;7.71;74.34
27712;BME280;2377;51.734;8.950;2023-05-03T06:59:30;99083.03;;;7.91;73.03
27712;BME280;2377;51.734;8.950;2023-05-03T07:01:56;99084.09;;;8.04;72.99
27712;BME280;2377;51.734;8.950;2023-05-03T07:04:24;99080.09;;;8.18;70.31
27712;BME280;2377;51.734;8.950;2023-05-03T07:06:50;99077.63;;;8.33;70.33
27712;BME280;2377;51.734;8.950;2023-05-03T07:09:19;99078.38;;;8.50;69.48
27712;BME280;2377;51.734;8.950;2023-05-03T07:11:46;99073.47;;;8.72;69.93
27712;BME280;2377;51.734;8.950;2023-05-03T07:14:15;99080.75;;;8.83;67.61
27712;BME280;2377;51.734;8.950;2023-05-03T07:16:42;99076.22;;;8.93;68.97
27712;BME280;2377;51.734;8.950;2023-05-03T07:19:09;99075.03;;;9.04;68.37
27712;BME280;2377;51.734;8.950;2023-05-03T07:21:36;99081.47;;;9.15;67.19
27712;BME280;2377;51.734;8.950;2023-05-03T07:24:03;99079.94;;;9.28;66.36
27712;BME280;2377;51.734;8.950;2023-05-03T07:26:33;99081.56;;;9.44;68.09
27712;BME280;2377;51.734;8.950;2023-05-03T07:29:00;99084.94;;;9.60;67.66
27712;BME280;2377;51.734;8.950;2023-05-03T07:31:27;99085.75;;;9.75;66.85
27712;BME280;2377;51.734;8.950;2023-05-03T07:33:54;99081.09;;;9.93;66.36
27712;BME280;2377;51.734;8.950;2023-05-03T07:36:21;99077.38;;;10.11;66.18
27712;BME280;2377;51.734;8.950;2023-05-03T07:38:48;99083.19;;;10.20;65.59
27712;BME280;2377;51.734;8.950;2023-05-03T07:41:15;99071.03;;;10.36;64.80
27712;BME280;2377;51.734;8.950;2023-05-03T07:43:44;99070.34;;;10.43;65.11
27712;BME280;2377;51.734;8.950;2023-05-03T07:46:11;99072.84;;;10.57;62.84
27712;BME280;2377;51.734;8.950;2023-05-03T07:48:37;99075.31;;;10.66;61.70
27712;BME280;2377;51.734;8.950;2023-05-03T07:51:04;99063.25;;;10.81;63.01
27712;BME280;2377;51.734;8.950;2023-05-03T07:53:31;99061.84;;;11.00;62.85
27712;BME280;2377;51.734;8.950;2023-05-03T07:56:00;99063.81;;;11.19;61.44
27712;BME280;2377;51.734;8.950;2023-05-03T07:58:26;99075.34;;;11.37;63.12
27712;BME280;2377;51.734;8.950;2023-05-03T08:00:55;99071.28;;;11.49;61.87
27712;BME280;2377;51.734;8.950;2023-05-03T08:03:22;99061.88;;;11.56;60.37
27712;BME280;2377;51.734;8.950;2023-05-03T08:05:49;99066.09;;;11.36;59.32
27712;BME280;2377;51.734;8.950;2023-05-03T08:08:16;99057.56;;;11.07;59.14
27712;BME280;2377;51.734;8.950;2023-05-03T08:10:44;99062.59;;;10.72;58.81
27712;BME280;2377;51.734;8.950;2023-05-03T08:13:11;99060.88;;;10.79;59.66
27712;BME280;2377;51.734;8.950;2023-05-03T08:15:38;99056.41;;;10.67;58.45
27712;BME280;2377;51.734;8.950;2023-05-03T08:18:06;99061.13;;;10.48;56.56
27712;BME280;2377;51.734;8.950;2023-05-03T08:20:33;99060.66;;;10.23;57.47
27712;BME280;2377;51.734;8.950;2023-05-03T08:23:01;99059.59;;;10.18;57.59
27712;BME280;2377;51.734;8.950;2023-05-03T08:25:28;99053.88;;;10.01;57.56
27712;BME280;2377;51.734;8.950;2023-05-03T08:27:55;99057.50;;;9.91;58.77
27712;BME280;2377;51.734;8.950;2023-05-03T08:30:22;99058.19;;;10.00;59.47
27712;BME280;2377;51.734;8.950;2023-05-03T08:32:50;99055.38;;;10.40;60.67
27712;BME280;2377;51.734;8.950;2023-05-03T08:35:18;99052.38;;;10.72;60.00
27712;BME280;2377;51.734;8.950;2023-05-03T08:37:45;99051.38;;;10.73;57.72
27712;BME280;2377;51.734;8.950;2023-05-03T08:40:12;99047.13;;;10.81;58.31
27712;BME280;2377;51.734;8.950;2023-05-03T08:42:42;99054.94;;;11.00;59.08
27712;BME280;2377;51.734;8.950;2023-05-03T08:45:12;99062.81;;;11.20;57.05
27712;BME280;2377;51.734;8.950;2023-05-03T08:47:40;99052.31;;;11.37;58.21
27712;BME280;2377;51.734;8.950;2023-05-03T08:50:10;99047.34;;;11.63;56.74
27712;BME280;2377;51.734;8.950;2023-05-03T08:52:41;99049.81;;;11.78;56.43
27712;BME280;2377;51.734;8.950;2023-05-03T08:55:09;99052.84;;;11.89;59.27
27712;BME280;2377;51.734;8.950;2023-05-03T08:57:37;99065.53;;;12.03;58.37
27712;BME280;2377;51.734;8.950;2023-05-03T09:00:05;99063.22;;;12.15;58.76
27712;BME280;2377;51.734;8.950;2023-05-03T09:02:35;99054.94;;;12.20;55.04
27712;BME280;2377;51.734;8.950;2023-05-03T09:05:05;99060.25;;;12.12;55.78
27712;BME280;2377;51.734;8.950;2023-05-03T09:08:05;99048.31;;;12.39;57.40
27712;BME280;2377;51.734;8.950;2023-05-03T09:10:35;99060.00;;;12.55;56.23
27712;BME280;2377;51.734;8.950;2023-05-03T09:13:02;99050.16;;;12.58;55.35
27712;BME280;2377;51.734;8.950;2023-05-03T09:15:30;99039.47;;;12.55;53.33
27712;BME280;2377;51.734;8.950;2023-05-03T09:18:12;99042.25;;;12.46;55.22
27712;BME280;2377;51.734;8.950;2023-05-03T09:20:41;99040.69;;;12.59;56.49
27712;BME280;2377;51.734;8.950;2023-05-03T09:23:17;99042.28;;;12.80;55.69
27712;BME280;2377;51.734;8.950;2023-05-03T09:25:47;99046.63;;;12.86;54.10
27712;BME280;2377;51.734;8.950;2023-05-03T09:28:16;99039.53;;;12.75;52.55
27712;BME280;2377;51.734;8.950;2023-05-03T09:30:44;99046.22;;;12.69;53.00
27712;BME280;2377;51.734;8.950;2023-05-03T09:33:13;99046.81;;;12.64;52.90
27712;BME280;2377;51.734;8.950;2023-05-03T09:35:56;99043.63;;;12.56;52.66
27712;BME280;2377;51.734;8.950;2023-05-03T09:38:29;99048.63;;;12.77;55.43
27712;BME280;2377;51.734;8.950;2023-05-03T09:40:57;99049.81;;;12.95;55.67
27712;BME280;2377;51.734;8.950;2023-05-03T09:43:24;99048.22;;;13.07;53.70
27712;BME280;2377;51.734;8.950;2023-05-03T09:45:51;99039.94;;;13.11;54.10
27712;BME280;2377;51.734;8.950;2023-05-03T09:48:20;99038.16;;;13.05;53.30
27712;BME280;2377;51.734;8.950;2023-05-03T09:50:48;99032.63;;;13.15;51.53
27712;BME280;2377;51.734;8.950;2023-05-03T09:53:20;99031.84;;;13.08;50.45
27712;BME280;2377;51.734;8.950;2023-05-03T09:55:49;99034.78;;;13.05;51.28
27712;BME280;2377;51.734;8.950;2023-05-03T09:58:17;99030.25;;;13.07;52.47
27712;BME280;2377;51.734;8.950;2023-05-03T10:00:48;99030.63;;;13.24;52.39
27712;BME280;2377;51.734;8.950;2023-05-03T10:03:21;99044.47;;;13.16;50.60
27712;BME280;2377;51.734;8.950;2023-05-03T10:05:51;99041.13;;;13.02;51.80
27712;BME280;2377;51.734;8.950;2023-05-03T10:08:32;99042.31;;;13.13;51.89
27712;BME280;2377;51.734;8.950;2023-05-03T10:11:02;99041.16;;;13.29;51.98
27712;BME280;2377;51.734;8.950;2023-05-03T10:13:30;99033.84;;;13.39;51.27
27712;BME280;2377;51.734;8.950;2023-05-03T10:16:04;99039.75;;;13.40;50.33
27712;BME280;2377;51.734;8.950;2023-05-03T10:18:34;99042.31;;;13.46;50.32
27712;BME280;2377;51.734;8.950;2023-05-03T10:21:11;99042.91;;;13.42;50.28
27712;BME280;2377;51.734;8.950;2023-05-03T10:24:11;99049.84;;;13.48;50.73
27712;BME280;2377;51.734;8.950;2023-05-03T10:26:41;99045.84;;;13.65;51.43
27712;BME280;2377;51.734;8.950;2023-05-03T10:29:43;99040.31;;;13.62;49.38
27712;BME280;2377;51.734;8.950;2023-05-03T10:32:33;99035.78;;;13.50;47.95
27712;BME280;2377;51.734;8.950;2023-05-03T10:35:03;99025.13;;;13.47;48.16
27712;BME280;2377;51.734;8.950;2023-05-03T10:37:32;99024.34;;;13.46;48.53
27712;BME280;2377;51.734;8.950;2023-05-03T10:40:19;99018.19;;;13.54;49.92
27712;BME280;2377;51.734;8.950;2023-05-03T10:42:53;99015.34;;;13.75;51.27
27712;BME280;2377;51.734;8.950;2023-05-03T10:45:24;99010.97;;;13.89;49.71
27712;BME280;2377;51.734;8.950;2023-05-03T10:48:16;99009.41;;;13.88;48.16
27712;BME280;2377;51.734;8.950;2023-05-03T10:50:46;99009.41;;;13.82;48.49
27712;BME280;2377;51.734;8.950;2023-05-03T10:53:46;99008.72;;;13.55;47.17
27712;BME280;2377;51.734;8.950;2023-05-03T10:56:15;99007.56;;;13.37;47.11
27712;BME280;2377;51.734;8.950;2023-05-03T10:58:45;99006.78;;;13.37;47.39
27712;BME280;2377;51.734;8.950;2023-05-03T11:01:15;99005.00;;;13.30;47.89
27712;BME280;2377;51.734;8.950;2023-05-03T11:03:54;99001.41;;;13.25;49.19
27712;BME280;2377;51.734;8.950;2023-05-03T11:06:30;99005.16;;;13.42;51.67
27712;BME280;2377;51.734;8.950;2023-05-03T11:08:58;99001.19;;;13.66;51.01
27712;BME280;2377;51.734;8.950;2023-05-03T11:11:25;98997.59;;;13.67;47.21
27712;BME280;2377;51.734;8.950;2023-05-03T11:13:54;99001.97;;;13.67;48.74
27712;BME280;2377;51.734;8.950;2023-05-03T11:16:21;99002.13;;;13.79;50.02
27712;BME280;2377;51.734;8.950;2023-05-03T11:18:48;99006.81;;;13.95;49.98
27712;BME280;2377;51.734;8.950;2023-05-03T11:21:16;99003.47;;;13.88;48.38
27712;BME280;2377;51.734;8.950;2023-05-03T11:23:44;99011.97;;;13.88;46.56
27712;BME280;2377;51.734;8.950;2023-05-03T11:26:12;99002.66;;;13.94;48.60
27712;BME280;2377;51.734;8.950;2023-05-03T11:28:41;98997.88;;;14.04;46.34
27712;BME280;2377;51.734;8.950;2023-05-03T11:31:10;98994.84;;;14.14;48.61
27712;BME280;2377;51.734;8.950;2023-05-03T11:33:39;98988.69;;;14.22;49.23
27712;BME280;2377;51.734;8.950;2023-05-03T11:36:07;98987.66;;;14.23;47.78
27712;BME280;2377;51.734;8.950;2023-05-03T11:38:38;98973.91;;;14.10;46.56
27712;BME280;2377;51.734;8.950;2023-05-03T11:41:13;98984.78;;;14.12;49.12
27712;BME280;2377;51.734;8.950;2023-05-03T11:43:41;98974.47;;;14.12;46.92
27712;BME280;2377;51.734;8.950;2023-05-03T11:46:11;98966.22;;;14.04;44.61
27712;BME280;2377;51.734;8.950;2023-05-03T11:48:38;98971.34;;;14.04;45.52
27712;BME280;2377;51.734;8.950;2023-05-03T11:51:08;98967.75;;;14.18;48.16
27712;BME280;2377;51.734;8.950;2023-05-03T11:53:38;98964.88;;;14.33;49.33
27712;BME280;2377;51.734;8.950;2023-05-03T11:56:07;98962.38;;;14.51;48.46
27712;BME280;2377;51.734;8.950;2023-05-03T11:58:48;98965.09;;;14.63;48.10
27712;BME280;2377;51.734;8.950;2023-05-03T12:01:18;98957.53;;;14.68;46.70
27712;BME280;2377;51.734;8.950;2023-05-03T12:03:46;98956.41;;;14.57;46.97
27712;BME280;2377;51.734;8.950;2023-05-03T12:06:15;98959.41;;;14.54;47.76
27712;BME280;2377;51.734;8.950;2023-05-03T12:08:42;98965.59;;;14.47;45.92
27712;BME280;2377;51.734;8.950;2023-05-03T12:11:09;98951.75;;;14.41;45.56
27712;BME280;2377;51.734;8.950;2023-05-03T12:13:38;98940.09;;;14.38;46.62
27712;BME280;2377;51.734;8.950;2023-05-03T12:16:06;98936.25;;;14.54;49.27
27712;BME280;2377;51.734;8.950;2023-05-03T12:18:50;98942.97;;;14.55;46.12
27712;BME280;2377;51.734;8.950;2023-05-03T12:21:18;98935.84;;;14.57;47.67
27712;BME280;2377;51.734;8.950;2023-05-03T12:23:46;98945.88;;;14.66;48.95
27712;BME280;2377;51.734;8.950;2023-05-03T12:26:15;98944.34;;;14.83;49.94
27712;BME280;2377;51.734;8.950;2023-05-03T12:28:44;98944.59;;;15.00;48.46
27712;BME280;2377;51.734;8.950;2023-05-03T12:31:12;98942.97;;;15.06;46.17
27712;BME280;2377;51.734;8.950;2023-05-03T12:33:40;98945.78;;;14.97;45.48
27712;BME280;2377;51.734;8.950;2023-05-03T12:36:09;98938.84;;;14.98;45.76
27712;BME280;2377;51.734;8.950;2023-05-03T12:38:36;98935.72;;;15.14;46.23
27712;BME280;2377;51.734;8.950;2023-05-03T12:41:03;98936.03;;;15.25;45.65
27712;BME280;2377;51.734;8.950;2023-05-03T12:43:30;98934.75;;;15.34;44.51
27712;BME280;2377;51.734;8.950;2023-05-03T12:45:57;98936.69;;;15.38;44.82
27712;BME280;2377;51.734;8.950;2023-05-03T12:48:28;98933.97;;;15.33;45.33
27712;BME280;2377;51.734;8.950;2023-05-03T12:50:55;98925.34;;;15.21;44.74
27712;BME280;2377;51.734;8.950;2023-05-03T12:53:24;98931.78;;;15.12;45.74
27712;BME280;2377;51.734;8.950;2023-05-03T12:55:52;98931.53;;;15.20;46.80
27712;BME280;2377;51.734;8.950;2023-05-03T12:58:19;98924.94;;;15.24;44.99
27712;BME280;2377;51.734;8.950;2023-05-03T13:00:46;98923.50;;;15.28;43.86
27712;BME280;2377;51.734;8.950;2023-05-03T13:03:13;98926.22;;;15.15;42.66
27712;BME280;2377;51.734;8.950;2023-05-03T13:05:40;98920.38;;;15.08;43.33
27712;BME280;2377;51.734;8.950;2023-05-03T13:08:07;98921.09;;;15.15;43.85
27712;BME280;2377;51.734;8.950;2023-05-03T13:10:37;98916.63;;;15.04;43.13
27712;BME280;2377;51.734;8.950;2023-05-03T13:13:05;98908.31;;;15.01;45.44
27712;BME280;2377;51.734;8.950;2023-05-03T13:15:34;98903.19;;;15.01;44.82
27712;BME280;2377;51.734;8.950;2023-05-03T13:18:04;98896.47;;;15.00;45.39
27712;BME280;2377;51.734;8.950;2023-05-03T13:20:32;98897.53;;;15.11;44.71
27712;BME280;2377;51.734;8.950;2023-05-03T13:22:59;98902.63;;;15.18;47.38
27712;BME280;2377;51.734;8.950;2023-05-03T13:25:26;98896.75;;;15.29;46.57
27712;BME280;2377;51.734;8.950;2023-05-03T13:27:54;98900.03;;;15.36;46.77